sensor_id;sensor_type;location;lat;lon;timestamp;P1;durP1;ratioP1;P2;durP2;ratioP2
1765;SDS011;880;52.452;8.656;2022-12-26T00:01:00;37.03;;;19.57;;
1765;SDS011;880;52.452;8.656;2022-12-26T00:03:32;38.13;;;21.50;;
1765;SDS011;880;52.452;8.656;2022-12-26T00:05:59;37.63;;;20.47;;
1765;SDS011;880;52.452;8.656;2022-12-26T00:08:26;32.40;;;20.60;;
1765;SDS011;880;52.452;8.656;2022-12-26T00:10:54;33.10;;;20.20;;
1765;SDS011;880;52.452;8.656;2022-12-26T00:13:21;31.93;;;19.10;;
1765;SDS011;880;52.452;8.656;2022-12-26T00:16:06;31.40;;;18.17;;
1765;SDS011;880;52.452;8.656;2022-12-26T00:18:42;29.30;;;18.77;;
1765;SDS011;880;52.452;8.656;2022-12-26T00:21:10;31.87;;;19.20;;
1765;SDS011;880;52.452;8.656;2022-12-26T00:23:39;34.20;;;18.67;;
1765;SDS011;880;52.452;8.656;2022-12-26T00:26:08;25.77;;;17.70;;
1765;SDS011;880;52.452;8.656;2022-12-26T00:28:41;30.40;;;18.57;;
1765;SDS011;880;52.452;8.656;2022-12-26T00:31:10;29.50;;;17.40;;
1765;SDS011;880;52.452;8.656;2022-12-26T00:33:44;32.60;;;17.90;;
1765;SDS011;880;52.452;8.656;2022-12-26T00:36:13;26.90;;;16.63;;
1765;SDS011;880;52.452;8.656;2022-12-26T00:38:47;29.70;;;18.50;;
1765;SDS011;880;52.452;8.656;2022-12-26T00:41:16;25.80;;;16.60;;
1765;SDS011;880;52.452;8.656;2022-12-26T00:43:43;29.83;;;17.10;;
1765;SDS011;880;52.452;8.656;2022-12-26T00:46:10;25.60;;;16.43;;
1765;SDS011;880;52.452;8.656;2022-12-26T00:48:40;26.17;;;16.70;;
1765;SDS011;880;52.452;8.656;2022-12-26T00:51:07;27.17;;;16.90;;
1765;SDS011;880;52.452;8.656;2022-12-26T00:53:34;29.80;;;17.67;;
1765;SDS011;880;52.452;8.656;2022-12-26T00:56:02;33.33;;;16.87;;
1765;SDS011;880;52.452;8.656;2022-12-26T00:58:30;33.20;;;17.90;;
1765;SDS011;880;52.452;8.656;2022-12-26T01:03:58;27.43;;;16.67;;
1765;SDS011;880;52.452;8.656;2022-12-26T01:06:26;32.60;;;18.93;;
1765;SDS011;880;52.452;8.656;2022-12-26T01:08:53;37.80;;;19.57;;
1765;SDS011;880;52.452;8.656;2022-12-26T01:11:20;36.17;;;17.63;;
1765;SDS011;880;52.452;8.656;2022-12-26T01:14:07;32.80;;;17.87;;
1765;SDS011;880;52.452;8.656;2022-12-26T01:16:39;33.80;;;17.93;;
1765;SDS011;880;52.452;8.656;2022-12-26T01:19:09;36.80;;;18.83;;
1765;SDS011;880;52.452;8.656;2022-12-26T01:21:38;37.30;;;20.50;;
1765;SDS011;880;52.452;8.656;2022-12-26T01:24:06;43.50;;;19.87;;
1765;SDS011;880;52.452;8.656;2022-12-26T01:26:33;41.60;;;19.40;;
1765;SDS011;880;52.452;8.656;2022-12-26T01:29:00;45.50;;;20.37;;
1765;SDS011;880;52.452;8.656;2022-12-26T01:31:27;44.97;;;21.20;;
1765;SDS011;880;52.452;8.656;2022-12-26T01:33:54;43.73;;;21.80;;
1765;SDS011;880;52.452;8.656;2022-12-26T01:36:21;45.57;;;21.57;;
1765;SDS011;880;52.452;8.656;2022-12-26T01:38:48;48.77;;;22.37;;
1765;SDS011;880;52.452;8.656;2022-12-26T01:41:14;44.10;;;23.07;;
1765;SDS011;880;52.452;8.656;2022-12-26T01:43:46;47.53;;;22.40;;
1765;SDS011;880;52.452;8.656;2022-12-26T01:46:39;44.67;;;22.70;;
1765;SDS011;880;52.452;8.656;2022-12-26T01:49:16;47.33;;;22.97;;
1765;SDS011;880;52.452;8.656;2022-12-26T01:52:02;47.30;;;23.10;;
1765;SDS011;880;52.452;8.656;2022-12-26T01:54:32;57.33;;;24.10;;
1765;SDS011;880;52.452;8.656;2022-12-26T01:57:10;48.47;;;23.83;;
1765;SDS011;880;52.452;8.656;2022-12-26T01:59:46;43.70;;;23.30;;
1765;SDS011;880;52.452;8.656;2022-12-26T02:02:16;48.73;;;23.77;;
1765;SDS011;880;52.452;8.656;2022-12-26T02:04:46;49.80;;;24.97;;
1765;SDS011;880;52.452;8.656;2022-12-26T02:07:35;50.50;;;24.97;;
1765;SDS011;880;52.452;8.656;2022-12-26T02:10:06;43.97;;;23.47;;
1765;SDS011;880;52.452;8.656;2022-12-26T02:12:39;46.90;;;23.57;;
1765;SDS011;880;52.452;8.656;2022-12-26T02:15:08;48.30;;;23.40;;
1765;SDS011;880;52.452;8.656;2022-12-26T02:17:39;49.10;;;25.43;;
1765;SDS011;880;52.452;8.656;2022-12-26T02:20:21;44.33;;;24.90;;
1765;SDS011;880;52.452;8.656;2022-12-26T02:37:40;37.83;;;21.20;;
1765;SDS011;880;52.452;8.656;2022-12-26T02:52:07;38.67;;;21.07;;
1765;SDS011;880;52.452;8.656;2022-12-26T02:55:08;44.30;;;22.00;;
1765;SDS011;880;52.452;8.656;2022-12-26T02:58:03;40.47;;;22.07;;
1765;SDS011;880;52.452;8.656;2022-12-26T03:01:03;40.10;;;20.80;;
1765;SDS011;880;52.452;8.656;2022-12-26T03:04:13;42.77;;;21.93;;
1765;SDS011;880;52.452;8.656;2022-12-26T03:07:03;41.93;;;21.93;;
1765;SDS011;880;52.452;8.656;2022-12-26T03:09:57;42.43;;;21.70;;
1765;SDS011;880;52.452;8.656;2022-12-26T03:12:51;41.07;;;22.07;;
1765;SDS011;880;52.452;8.656;2022-12-26T03:15:51;47.67;;;23.93;;
1765;SDS011;880;52.452;8.656;2022-12-26T03:18:55;40.67;;;22.20;;
1765;SDS011;880;52.452;8.656;2022-12-26T03:21:29;46.23;;;23.50;;
1765;SDS011;880;52.452;8.656;2022-12-26T03:24:06;48.07;;;23.40;;
1765;SDS011;880;52.452;8.656;2022-12-26T03:26:37;41.87;;;21.83;;
1765;SDS011;880;52.452;8.656;2022-12-26T03:29:17;42.93;;;23.60;;
1765;SDS011;880;52.452;8.656;2022-12-26T03:32:08;40.03;;;22.83;;
1765;SDS011;880;52.452;8.656;2022-12-26T03:34:41;40.80;;;21.87;;
1765;SDS011;880;52.452;8.656;2022-12-26T03:46:49;38.20;;;21.30;;
1765;SDS011;880;52.452;8.656;2022-12-26T03:49:47;37.73;;;21.90;;
1765;SDS011;880;52.452;8.656;2022-12-26T03:52:45;43.53;;;21.90;;
1765;SDS011;880;52.452;8.656;2022-12-26T03:56:05;36.53;;;20.30;;
1765;SDS011;880;52.452;8.656;2022-12-26T04:02:12;38.67;;;21.33;;
1765;SDS011;880;52.452;8.656;2022-12-26T04:05:03;37.13;;;19.70;;
1765;SDS011;880;52.452;8.656;2022-12-26T04:07:53;37.87;;;20.47;;
1765;SDS011;880;52.452;8.656;2022-12-26T04:10:46;37.80;;;20.80;;
1765;SDS011;880;52.452;8.656;2022-12-26T04:16:48;36.00;;;20.10;;
1765;SDS011;880;52.452;8.656;2022-12-26T04:22:38;37.10;;;22.37;;
1765;SDS011;880;52.452;8.656;2022-12-26T04:25:39;33.53;;;20.53;;
1765;SDS011;880;52.452;8.656;2022-12-26T04:28:38;34.57;;;19.87;;
1765;SDS011;880;52.452;8.656;2022-12-26T04:35:00;31.53;;;18.30;;
1765;SDS011;880;52.452;8.656;2022-12-26T04:37:39;30.40;;;18.93;;
1765;SDS011;880;52.452;8.656;2022-12-26T04:40:28;29.73;;;19.00;;
1765;SDS011;880;52.452;8.656;2022-12-26T04:43:19;27.67;;;15.70;;
1765;SDS011;880;52.452;8.656;2022-12-26T04:46:15;25.60;;;15.30;;
1765;SDS011;880;52.452;8.656;2022-12-26T04:48:46;21.60;;;13.63;;
1765;SDS011;880;52.452;8.656;2022-12-26T04:51:34;23.03;;;15.67;;
1765;SDS011;880;52.452;8.656;2022-12-26T04:54:02;22.93;;;14.83;;
1765;SDS011;880;52.452;8.656;2022-12-26T04:56:30;26.23;;;16.33;;
1765;SDS011;880;52.452;8.656;2022-12-26T04:58:57;25.07;;;15.10;;
1765;SDS011;880;52.452;8.656;2022-12-26T05:01:25;22.43;;;13.90;;
1765;SDS011;880;52.452;8.656;2022-12-26T05:04:11;21.40;;;14.03;;
1765;SDS011;880;52.452;8.656;2022-12-26T05:06:59;21.80;;;14.73;;
1765;SDS011;880;52.452;8.656;2022-12-26T05:09:52;21.67;;;15.07;;
1765;SDS011;880;52.452;8.656;2022-12-26T05:12:20;23.07;;;14.47;;
1765;SDS011;880;52.452;8.656;2022-12-26T05:14:47;24.60;;;15.60;;
1765;SDS011;880;52.452;8.656;2022-12-26T05:17:14;22.20;;;16.40;;
1765;SDS011;880;52.452;8.656;2022-12-26T05:20:00;22.93;;;14.23;;
1765;SDS011;880;52.452;8.656;2022-12-26T05:22:45;25.20;;;15.00;;
1765;SDS011;880;52.452;8.656;2022-12-26T05:25:32;25.30;;;15.90;;
1765;SDS011;880;52.452;8.656;2022-12-26T05:28:22;21.30;;;14.17;;
1765;SDS011;880;52.452;8.656;2022-12-26T05:31:07;19.90;;;13.77;;
1765;SDS011;880;52.452;8.656;2022-12-26T05:33:40;20.60;;;13.73;;
1765;SDS011;880;52.452;8.656;2022-12-26T05:36:28;21.37;;;13.10;;
1765;SDS011;880;52.452;8.656;2022-12-26T05:39:19;23.33;;;14.83;;
1765;SDS011;880;52.452;8.656;2022-12-26T05:41:46;20.43;;;14.00;;
1765;SDS011;880;52.452;8.656;2022-12-26T05:44:13;20.67;;;14.07;;
1765;SDS011;880;52.452;8.656;2022-12-26T05:46:40;23.87;;;13.53;;
1765;SDS011;880;52.452;8.656;2022-12-26T05:49:08;23.57;;;14.43;;
1765;SDS011;880;52.452;8.656;2022-12-26T05:51:35;19.70;;;13.07;;
1765;SDS011;880;52.452;8.656;2022-12-26T05:54:02;20.80;;;13.40;;
1765;SDS011;880;52.452;8.656;2022-12-26T05:56:30;18.50;;;14.37;;
1765;SDS011;880;52.452;8.656;2022-12-26T05:58:58;20.40;;;12.87;;
1765;SDS011;880;52.452;8.656;2022-12-26T06:01:26;21.07;;;13.10;;
1765;SDS011;880;52.452;8.656;2022-12-26T06:03:56;19.30;;;12.60;;
1765;SDS011;880;52.452;8.656;2022-12-26T06:06:25;19.17;;;12.70;;
1765;SDS011;880;52.452;8.656;2022-12-26T06:08:53;18.87;;;13.50;;
1765;SDS011;880;52.452;8.656;2022-12-26T06:11:21;16.17;;;10.93;;
1765;SDS011;880;52.452;8.656;2022-12-26T06:13:51;19.80;;;12.63;;
1765;SDS011;880;52.452;8.656;2022-12-26T06:16:20;18.40;;;10.93;;
1765;SDS011;880;52.452;8.656;2022-12-26T06:18:47;19.23;;;13.40;;
1765;SDS011;880;52.452;8.656;2022-12-26T06:21:16;16.60;;;11.50;;
1765;SDS011;880;52.452;8.656;2022-12-26T06:23:45;21.70;;;12.47;;
1765;SDS011;880;52.452;8.656;2022-12-26T06:26:13;15.17;;;10.80;;
1765;SDS011;880;52.452;8.656;2022-12-26T06:28:40;17.60;;;11.50;;
1765;SDS011;880;52.452;8.656;2022-12-26T06:31:14;18.20;;;11.70;;
1765;SDS011;880;52.452;8.656;2022-12-26T06:33:47;15.33;;;11.30;;
1765;SDS011;880;52.452;8.656;2022-12-26T06:36:17;17.13;;;11.30;;
1765;SDS011;880;52.452;8.656;2022-12-26T06:38:48;15.70;;;11.10;;
1765;SDS011;880;52.452;8.656;2022-12-26T06:41:16;17.60;;;11.67;;
1765;SDS011;880;52.452;8.656;2022-12-26T06:43:45;20.50;;;13.07;;
1765;SDS011;880;52.452;8.656;2022-12-26T06:46:15;19.80;;;12.50;;
1765;SDS011;880;52.452;8.656;2022-12-26T06:48:48;18.20;;;12.57;;
1765;SDS011;880;52.452;8.656;2022-12-26T06:51:22;17.90;;;12.80;;
1765;SDS011;880;52.452;8.656;2022-12-26T06:53:51;17.60;;;12.40;;
1765;SDS011;880;52.452;8.656;2022-12-26T06:56:20;17.47;;;11.77;;
1765;SDS011;880;52.452;8.656;2022-12-26T06:58:53;19.60;;;12.27;;
1765;SDS011;880;52.452;8.656;2022-12-26T07:01:25;18.90;;;13.03;;
1765;SDS011;880;52.452;8.656;2022-12-26T07:03:54;18.73;;;12.03;;
1765;SDS011;880;52.452;8.656;2022-12-26T07:06:39;20.13;;;14.20;;
1765;SDS011;880;52.452;8.656;2022-12-26T07:09:07;18.50;;;12.60;;
1765;SDS011;880;52.452;8.656;2022-12-26T07:11:41;18.13;;;13.37;;
1765;SDS011;880;52.452;8.656;2022-12-26T07:14:13;20.07;;;13.73;;
1765;SDS011;880;52.452;8.656;2022-12-26T07:16:42;19.50;;;13.70;;
1765;SDS011;880;52.452;8.656;2022-12-26T07:19:11;19.23;;;13.90;;
1765;SDS011;880;52.452;8.656;2022-12-26T07:21:39;20.17;;;14.17;;
1765;SDS011;880;52.452;8.656;2022-12-26T07:24:17;20.70;;;14.77;;
1765;SDS011;880;52.452;8.656;2022-12-26T07:26:47;23.63;;;15.90;;
1765;SDS011;880;52.452;8.656;2022-12-26T07:29:14;23.23;;;14.87;;
1765;SDS011;880;52.452;8.656;2022-12-26T07:31:42;23.20;;;16.00;;
1765;SDS011;880;52.452;8.656;2022-12-26T07:34:10;20.80;;;16.17;;
1765;SDS011;880;52.452;8.656;2022-12-26T07:36:37;22.90;;;17.27;;
1765;SDS011;880;52.452;8.656;2022-12-26T07:39:04;23.50;;;16.40;;
1765;SDS011;880;52.452;8.656;2022-12-26T07:41:33;28.30;;;18.00;;
1765;SDS011;880;52.452;8.656;2022-12-26T07:44:38;23.10;;;17.13;;
1765;SDS011;880;52.452;8.656;2022-12-26T07:47:06;24.93;;;18.20;;
1765;SDS011;880;52.452;8.656;2022-12-26T07:49:34;22.00;;;15.53;;
1765;SDS011;880;52.452;8.656;2022-12-26T07:52:01;26.30;;;17.00;;
1765;SDS011;880;52.452;8.656;2022-12-26T07:54:29;27.00;;;17.10;;
1765;SDS011;880;52.452;8.656;2022-12-26T07:56:57;25.60;;;16.53;;
1765;SDS011;880;52.452;8.656;2022-12-26T07:59:44;22.93;;;15.90;;
1765;SDS011;880;52.452;8.656;2022-12-26T08:02:11;23.80;;;16.90;;
1765;SDS011;880;52.452;8.656;2022-12-26T08:04:38;21.73;;;16.00;;
1765;SDS011;880;52.452;8.656;2022-12-26T08:07:06;27.87;;;17.43;;
1765;SDS011;880;52.452;8.656;2022-12-26T08:09:33;25.13;;;17.60;;
1765;SDS011;880;52.452;8.656;2022-12-26T08:12:01;23.73;;;16.50;;
1765;SDS011;880;52.452;8.656;2022-12-26T08:14:27;30.17;;;16.03;;
1765;SDS011;880;52.452;8.656;2022-12-26T08:16:54;26.70;;;15.17;;
1765;SDS011;880;52.452;8.656;2022-12-26T08:19:22;25.10;;;16.30;;
1765;SDS011;880;52.452;8.656;2022-12-26T08:21:49;23.23;;;17.40;;
1765;SDS011;880;52.452;8.656;2022-12-26T08:24:16;22.93;;;16.07;;
1765;SDS011;880;52.452;8.656;2022-12-26T08:26:43;19.00;;;14.93;;
1765;SDS011;880;52.452;8.656;2022-12-26T08:29:10;19.57;;;14.90;;
1765;SDS011;880;52.452;8.656;2022-12-26T08:31:37;24.87;;;16.67;;
1765;SDS011;880;52.452;8.656;2022-12-26T08:34:04;20.47;;;16.60;;
1765;SDS011;880;52.452;8.656;2022-12-26T08:36:31;23.80;;;17.17;;
1765;SDS011;880;52.452;8.656;2022-12-26T08:38:59;20.23;;;14.93;;
1765;SDS011;880;52.452;8.656;2022-12-26T08:41:25;21.90;;;15.80;;
1765;SDS011;880;52.452;8.656;2022-12-26T08:43:52;18.77;;;15.27;;
1765;SDS011;880;52.452;8.656;2022-12-26T08:46:40;21.67;;;15.90;;
1765;SDS011;880;52.452;8.656;2022-12-26T08:49:07;20.77;;;14.67;;
1765;SDS011;880;52.452;8.656;2022-12-26T08:51:34;17.30;;;14.27;;
1765;SDS011;880;52.452;8.656;2022-12-26T08:54:02;17.47;;;14.13;;
1765;SDS011;880;52.452;8.656;2022-12-26T08:56:29;20.03;;;13.83;;
1765;SDS011;880;52.452;8.656;2022-12-26T08:58:56;13.63;;;12.20;;
1765;SDS011;880;52.452;8.656;2022-12-26T09:01:26;16.10;;;12.50;;
1765;SDS011;880;52.452;8.656;2022-12-26T09:03:56;14.77;;;11.53;;
1765;SDS011;880;52.452;8.656;2022-12-26T09:06:30;14.37;;;11.73;;
1765;SDS011;880;52.452;8.656;2022-12-26T09:09:00;11.50;;;10.10;;
1765;SDS011;880;52.452;8.656;2022-12-26T09:11:28;10.90;;;9.40;;
1765;SDS011;880;52.452;8.656;2022-12-26T09:13:57;11.93;;;9.70;;
1765;SDS011;880;52.452;8.656;2022-12-26T09:16:33;13.87;;;12.37;;
1765;SDS011;880;52.452;8.656;2022-12-26T09:19:15;20.63;;;15.17;;
1765;SDS011;880;52.452;8.656;2022-12-26T09:21:44;69.63;;;41.67;;
1765;SDS011;880;52.452;8.656;2022-12-26T09:24:14;13.97;;;10.43;;
1765;SDS011;880;52.452;8.656;2022-12-26T09:26:43;12.53;;;10.97;;
1765;SDS011;880;52.452;8.656;2022-12-26T09:29:10;30.37;;;19.80;;
1765;SDS011;880;52.452;8.656;2022-12-26T09:31:38;21.27;;;15.77;;
1765;SDS011;880;52.452;8.656;2022-12-26T09:34:06;16.90;;;13.93;;
1765;SDS011;880;52.452;8.656;2022-12-26T09:36:35;41.00;;;26.43;;
1765;SDS011;880;52.452;8.656;2022-12-26T09:39:04;10.90;;;9.90;;
1765;SDS011;880;52.452;8.656;2022-12-26T09:50:38;7.83;;;7.13;;
1765;SDS011;880;52.452;8.656;2022-12-26T09:53:13;7.80;;;7.13;;
1765;SDS011;880;52.452;8.656;2022-12-26T09:55:48;9.50;;;8.37;;
1765;SDS011;880;52.452;8.656;2022-12-26T09:58:28;8.37;;;7.40;;
1765;SDS011;880;52.452;8.656;2022-12-26T10:03:40;8.68;;;7.88;;
1765;SDS011;880;52.452;8.656;2022-12-26T10:06:22;7.77;;;7.10;;
1765;SDS011;880;52.452;8.656;2022-12-26T10:17:51;7.13;;;6.50;;
1765;SDS011;880;52.452;8.656;2022-12-26T10:23:27;6.00;;;5.50;;
1765;SDS011;880;52.452;8.656;2022-12-26T10:31:40;6.20;;;4.63;;
1765;SDS011;880;52.452;8.656;2022-12-26T10:34:17;7.30;;;5.20;;
1765;SDS011;880;52.452;8.656;2022-12-26T10:36:51;5.93;;;5.43;;
1765;SDS011;880;52.452;8.656;2022-12-26T10:39:27;9.33;;;5.60;;
1765;SDS011;880;52.452;8.656;2022-12-26T10:42:20;6.03;;;5.63;;
1765;SDS011;880;52.452;8.656;2022-12-26T10:44:57;4.70;;;4.30;;
1765;SDS011;880;52.452;8.656;2022-12-26T10:47:25;5.10;;;4.00;;
1765;SDS011;880;52.452;8.656;2022-12-26T10:50:03;6.63;;;6.13;;
1765;SDS011;880;52.452;8.656;2022-12-26T10:52:36;7.53;;;6.83;;
1765;SDS011;880;52.452;8.656;2022-12-26T10:55:05;5.90;;;4.60;;
1765;SDS011;880;52.452;8.656;2022-12-26T10:57:55;3.87;;;3.47;;
1765;SDS011;880;52.452;8.656;2022-12-26T11:00:42;4.13;;;3.73;;
1765;SDS011;880;52.452;8.656;2022-12-26T11:03:10;4.23;;;3.93;;
1765;SDS011;880;52.452;8.656;2022-12-26T11:05:45;3.93;;;3.33;;
1765;SDS011;880;52.452;8.656;2022-12-26T11:08:39;5.43;;;3.80;;
1765;SDS011;880;52.452;8.656;2022-12-26T11:11:25;4.33;;;3.93;;
1765;SDS011;880;52.452;8.656;2022-12-26T11:14:24;26.10;;;14.60;;
1765;SDS011;880;52.452;8.656;2022-12-26T11:17:00;6.13;;;5.50;;
1765;SDS011;880;52.452;8.656;2022-12-26T11:19:34;8.70;;;3.50;;
1765;SDS011;880;52.452;8.656;2022-12-26T11:22:21;19.27;;;11.73;;
1765;SDS011;880;52.452;8.656;2022-12-26T11:25:03;15.07;;;10.63;;
1765;SDS011;880;52.452;8.656;2022-12-26T11:27:40;4.00;;;3.70;;
1765;SDS011;880;52.452;8.656;2022-12-26T11:30:15;8.07;;;7.03;;
1765;SDS011;880;52.452;8.656;2022-12-26T11:35:51;5.80;;;5.30;;
1765;SDS011;880;52.452;8.656;2022-12-26T11:38:23;4.73;;;4.30;;
1765;SDS011;880;52.452;8.656;2022-12-26T11:41:15;3.03;;;2.73;;
1765;SDS011;880;52.452;8.656;2022-12-26T11:46:43;5.27;;;4.63;;
1765;SDS011;880;52.452;8.656;2022-12-26T11:52:38;3.67;;;3.20;;
1765;SDS011;880;52.452;8.656;2022-12-26T11:57:57;7.40;;;3.90;;
1765;SDS011;880;52.452;8.656;2022-12-26T12:03:10;6.33;;;3.30;;
1765;SDS011;880;52.452;8.656;2022-12-26T12:08:29;3.67;;;3.40;;
1765;SDS011;880;52.452;8.656;2022-12-26T12:19:45;4.40;;;3.70;;
1765;SDS011;880;52.452;8.656;2022-12-26T12:25:40;2.97;;;2.77;;
1765;SDS011;880;52.452;8.656;2022-12-26T12:31:25;3.90;;;3.33;;
1765;SDS011;880;52.452;8.656;2022-12-26T12:37:42;3.60;;;3.00;;
1765;SDS011;880;52.452;8.656;2022-12-26T12:43:36;3.80;;;2.40;;
1765;SDS011;880;52.452;8.656;2022-12-26T12:48:52;3.30;;;3.00;;
1765;SDS011;880;52.452;8.656;2022-12-26T12:54:18;3.20;;;2.90;;
1765;SDS011;880;52.452;8.656;2022-12-26T12:57:26;3.27;;;2.97;;
1765;SDS011;880;52.452;8.656;2022-12-26T13:00:20;3.10;;;2.90;;
1765;SDS011;880;52.452;8.656;2022-12-26T13:03:06;4.63;;;4.23;;
1765;SDS011;880;52.452;8.656;2022-12-26T13:05:54;4.73;;;3.50;;
1765;SDS011;880;52.452;8.656;2022-12-26T13:08:37;3.00;;;2.80;;
1765;SDS011;880;52.452;8.656;2022-12-26T13:11:14;5.17;;;3.00;;
1765;SDS011;880;52.452;8.656;2022-12-26T13:16:59;2.13;;;1.53;;
1765;SDS011;880;52.452;8.656;2022-12-26T13:19:52;4.03;;;1.30;;
1765;SDS011;880;52.452;8.656;2022-12-26T13:22:32;2.80;;;1.48;;
1765;SDS011;880;52.452;8.656;2022-12-26T13:25:23;5.07;;;1.47;;
1765;SDS011;880;52.452;8.656;2022-12-26T13:27:56;5.07;;;1.97;;
1765;SDS011;880;52.452;8.656;2022-12-26T13:30:35;4.87;;;1.83;;
1765;SDS011;880;52.452;8.656;2022-12-26T13:33:03;2.13;;;1.57;;
1765;SDS011;880;52.452;8.656;2022-12-26T13:41:21;1.97;;;1.43;;
1765;SDS011;880;52.452;8.656;2022-12-26T14:05:48;3.90;;;2.87;;
1765;SDS011;880;52.452;8.656;2022-12-26T14:11:41;1.90;;;1.07;;
1765;SDS011;880;52.452;8.656;2022-12-26T14:17:51;2.27;;;1.10;;
1765;SDS011;880;52.452;8.656;2022-12-26T14:26:47;11.33;;;6.67;;
1765;SDS011;880;52.452;8.656;2022-12-26T14:32:10;17.40;;;8.53;;
1765;SDS011;880;52.452;8.656;2022-12-26T14:41:12;5.90;;;2.53;;
1765;SDS011;880;52.452;8.656;2022-12-26T14:54:53;3.83;;;1.33;;
1765;SDS011;880;52.452;8.656;2022-12-26T15:03:31;7.10;;;2.60;;
1765;SDS011;880;52.452;8.656;2022-12-26T15:21:21;4.77;;;2.10;;
1765;SDS011;880;52.452;8.656;2022-12-26T15:27:25;7.83;;;2.10;;
1765;SDS011;880;52.452;8.656;2022-12-26T15:32:50;14.53;;;7.50;;
1765;SDS011;880;52.452;8.656;2022-12-26T15:38:45;8.03;;;2.90;;
1765;SDS011;880;52.452;8.656;2022-12-26T15:41:28;10.00;;;2.63;;
1765;SDS011;880;52.452;8.656;2022-12-26T15:46:46;3.57;;;2.40;;
1765;SDS011;880;52.452;8.656;2022-12-26T15:55:39;12.93;;;8.07;;
1765;SDS011;880;52.452;8.656;2022-12-26T16:01:40;11.10;;;3.80;;
1765;SDS011;880;52.452;8.656;2022-12-26T16:04:26;18.07;;;11.67;;
1765;SDS011;880;52.452;8.656;2022-12-26T16:10:00;11.50;;;3.20;;
1765;SDS011;880;52.452;8.656;2022-12-26T16:12:33;6.83;;;2.77;;
1765;SDS011;880;52.452;8.656;2022-12-26T16:17:37;7.23;;;2.47;;
1765;SDS011;880;52.452;8.656;2022-12-26T16:20:19;10.67;;;3.27;;
1765;SDS011;880;52.452;8.656;2022-12-26T16:23:16;10.60;;;2.43;;
1765;SDS011;880;52.452;8.656;2022-12-26T16:25:49;7.50;;;2.60;;
1765;SDS011;880;52.452;8.656;2022-12-26T16:28:26;9.77;;;2.73;;
1765;SDS011;880;52.452;8.656;2022-12-26T16:31:00;7.93;;;2.13;;
1765;SDS011;880;52.452;8.656;2022-12-26T16:33:47;7.60;;;2.53;;
1765;SDS011;880;52.452;8.656;2022-12-26T16:36:18;6.57;;;2.00;;
1765;SDS011;880;52.452;8.656;2022-12-26T16:38:50;4.63;;;1.63;;
1765;SDS011;880;52.452;8.656;2022-12-26T16:41:19;8.23;;;2.50;;
1765;SDS011;880;52.452;8.656;2022-12-26T16:44:20;5.67;;;2.43;;
1765;SDS011;880;52.452;8.656;2022-12-26T16:47:00;13.50;;;2.60;;
1765;SDS011;880;52.452;8.656;2022-12-26T16:49:33;7.67;;;2.17;;
1765;SDS011;880;52.452;8.656;2022-12-26T16:52:01;10.30;;;2.37;;
1765;SDS011;880;52.452;8.656;2022-12-26T16:54:36;11.20;;;3.03;;
1765;SDS011;880;52.452;8.656;2022-12-26T16:57:13;4.60;;;3.70;;
1765;SDS011;880;52.452;8.656;2022-12-26T16:59:50;6.97;;;3.20;;
1765;SDS011;880;52.452;8.656;2022-12-26T17:02:29;12.23;;;3.57;;
1765;SDS011;880;52.452;8.656;2022-12-26T17:07:43;7.10;;;3.20;;
1765;SDS011;880;52.452;8.656;2022-12-26T17:10:19;8.73;;;3.07;;
1765;SDS011;880;52.452;8.656;2022-12-26T17:12:53;4.80;;;2.60;;
1765;SDS011;880;52.452;8.656;2022-12-26T17:15:24;5.43;;;3.70;;
1765;SDS011;880;52.452;8.656;2022-12-26T17:17:55;6.90;;;3.97;;
1765;SDS011;880;52.452;8.656;2022-12-26T17:22:51;13.00;;;6.00;;
1765;SDS011;880;52.452;8.656;2022-12-26T17:25:24;7.43;;;3.47;;
1765;SDS011;880;52.452;8.656;2022-12-26T17:30:40;6.87;;;3.30;;
1765;SDS011;880;52.452;8.656;2022-12-26T17:33:15;11.40;;;6.77;;
1765;SDS011;880;52.452;8.656;2022-12-26T17:35:52;9.67;;;3.60;;
1765;SDS011;880;52.452;8.656;2022-12-26T17:38:43;10.17;;;3.20;;
1765;SDS011;880;52.452;8.656;2022-12-26T17:41:12;9.60;;;2.77;;
1765;SDS011;880;52.452;8.656;2022-12-26T17:43:42;12.40;;;3.50;;
1765;SDS011;880;52.452;8.656;2022-12-26T17:46:13;8.17;;;5.63;;
1765;SDS011;880;52.452;8.656;2022-12-26T17:48:43;18.93;;;5.90;;
1765;SDS011;880;52.452;8.656;2022-12-26T17:51:12;11.97;;;5.50;;
1765;SDS011;880;52.452;8.656;2022-12-26T17:53:43;13.00;;;5.10;;
1765;SDS011;880;52.452;8.656;2022-12-26T17:56:17;8.13;;;4.83;;
1765;SDS011;880;52.452;8.656;2022-12-26T17:58:47;26.03;;;17.60;;
1765;SDS011;880;52.452;8.656;2022-12-26T18:01:15;10.83;;;8.30;;
1765;SDS011;880;52.452;8.656;2022-12-26T18:03:48;10.83;;;5.57;;
1765;SDS011;880;52.452;8.656;2022-12-26T18:06:18;9.90;;;4.20;;
1765;SDS011;880;52.452;8.656;2022-12-26T18:08:46;13.53;;;7.33;;
1765;SDS011;880;52.452;8.656;2022-12-26T18:11:13;10.87;;;5.67;;
1765;SDS011;880;52.452;8.656;2022-12-26T18:13:41;10.13;;;5.60;;
1765;SDS011;880;52.452;8.656;2022-12-26T18:16:13;11.00;;;5.27;;
1765;SDS011;880;52.452;8.656;2022-12-26T18:18:43;9.67;;;6.20;;
1765;SDS011;880;52.452;8.656;2022-12-26T18:21:13;14.27;;;7.23;;
1765;SDS011;880;52.452;8.656;2022-12-26T18:23:41;7.20;;;3.73;;
1765;SDS011;880;52.452;8.656;2022-12-26T18:26:19;7.67;;;3.33;;
1765;SDS011;880;52.452;8.656;2022-12-26T18:28:52;15.67;;;4.83;;
1765;SDS011;880;52.452;8.656;2022-12-26T18:31:20;12.67;;;6.10;;
1765;SDS011;880;52.452;8.656;2022-12-26T18:33:47;18.40;;;7.20;;
1765;SDS011;880;52.452;8.656;2022-12-26T18:36:15;33.13;;;18.50;;
1765;SDS011;880;52.452;8.656;2022-12-26T18:38:43;47.27;;;25.00;;
1765;SDS011;880;52.452;8.656;2022-12-26T18:41:13;32.77;;;18.03;;
1765;SDS011;880;52.452;8.656;2022-12-26T18:43:43;10.80;;;4.03;;
1765;SDS011;880;52.452;8.656;2022-12-26T18:46:21;7.87;;;3.20;;
1765;SDS011;880;52.452;8.656;2022-12-26T18:48:51;11.27;;;2.83;;
1765;SDS011;880;52.452;8.656;2022-12-26T18:51:20;14.57;;;3.13;;
1765;SDS011;880;52.452;8.656;2022-12-26T18:53:47;9.43;;;2.80;;
1765;SDS011;880;52.452;8.656;2022-12-26T18:56:15;11.50;;;3.30;;
1765;SDS011;880;52.452;8.656;2022-12-26T18:58:45;11.40;;;3.23;;
1765;SDS011;880;52.452;8.656;2022-12-26T19:01:22;9.53;;;3.40;;
1765;SDS011;880;52.452;8.656;2022-12-26T19:03:49;11.03;;;2.70;;
1765;SDS011;880;52.452;8.656;2022-12-26T19:06:20;16.77;;;3.07;;
1765;SDS011;880;52.452;8.656;2022-12-26T19:08:50;4.67;;;2.73;;
1765;SDS011;880;52.452;8.656;2022-12-26T19:11:20;12.57;;;2.80;;
1765;SDS011;880;52.452;8.656;2022-12-26T19:13:48;7.43;;;2.90;;
1765;SDS011;880;52.452;8.656;2022-12-26T19:16:15;13.13;;;4.77;;
1765;SDS011;880;52.452;8.656;2022-12-26T19:18:42;5.57;;;2.47;;
1765;SDS011;880;52.452;8.656;2022-12-26T19:21:10;5.13;;;2.93;;
1765;SDS011;880;52.452;8.656;2022-12-26T19:23:38;7.53;;;3.00;;
1765;SDS011;880;52.452;8.656;2022-12-26T19:26:09;13.30;;;3.93;;
1765;SDS011;880;52.452;8.656;2022-12-26T19:28:39;11.63;;;3.17;;
1765;SDS011;880;52.452;8.656;2022-12-26T19:31:13;6.23;;;2.40;;
1765;SDS011;880;52.452;8.656;2022-12-26T19:33:41;7.70;;;2.80;;
1765;SDS011;880;52.452;8.656;2022-12-26T19:36:08;4.63;;;2.90;;
1765;SDS011;880;52.452;8.656;2022-12-26T19:38:36;6.33;;;2.60;;
1765;SDS011;880;52.452;8.656;2022-12-26T19:41:05;11.10;;;3.13;;
1765;SDS011;880;52.452;8.656;2022-12-26T19:43:35;8.83;;;3.10;;
1765;SDS011;880;52.452;8.656;2022-12-26T19:46:04;10.33;;;2.90;;
1765;SDS011;880;52.452;8.656;2022-12-26T19:48:34;9.07;;;3.00;;
1765;SDS011;880;52.452;8.656;2022-12-26T19:51:05;6.30;;;2.40;;
1765;SDS011;880;52.452;8.656;2022-12-26T19:53:35;5.93;;;2.27;;
1765;SDS011;880;52.452;8.656;2022-12-26T19:56:11;6.00;;;2.50;;
1765;SDS011;880;52.452;8.656;2022-12-26T19:58:39;12.70;;;3.30;;
1765;SDS011;880;52.452;8.656;2022-12-26T20:01:07;10.20;;;2.37;;
1765;SDS011;880;52.452;8.656;2022-12-26T20:03:37;3.70;;;2.20;;
1765;SDS011;880;52.452;8.656;2022-12-26T20:06:15;10.03;;;3.40;;